createdAt,value
2022-09-12T00:00:23.402Z,0.77
2022-09-12T00:02:54.426Z,1.10
2022-09-12T00:05:22.461Z,1.58
2022-09-12T00:07:49.660Z,1.05
2022-09-12T00:10:16.953Z,0.88
2022-09-12T00:12:44.155Z,1.42
2022-09-12T00:15:11.784Z,1.75
2022-09-12T00:17:39.606Z,1.30
2022-09-12T00:20:09.249Z,1.70
2022-09-12T00:22:36.805Z,1.35
2022-09-12T00:25:05.088Z,1.67
2022-09-12T00:27:32.434Z,1.45
2022-09-12T00:29:59.558Z,1.42
2022-09-12T00:32:26.691Z,1.58
2022-09-12T00:34:53.927Z,1.90
2022-09-12T00:37:20.979Z,1.65
2022-09-12T00:39:48.099Z,1.88
2022-09-12T00:42:15.404Z,2.47
2022-09-12T00:44:46.832Z,1.45
2022-09-12T00:47:19.630Z,1.52
2022-09-12T00:49:55.863Z,2.00
2022-09-12T00:52:37.836Z,1.60
2022-09-12T00:55:31.909Z,1.67
2022-09-12T00:58:23.011Z,2.35
2022-09-12T01:00:50.355Z,2.65
2022-09-12T01:03:19.711Z,2.22
2022-09-12T01:06:01.590Z,2.55
2022-09-12T01:08:29.578Z,1.40
2022-09-12T01:10:57.940Z,1.48
2022-09-12T01:13:25.270Z,1.92
2022-09-12T01:15:52.943Z,2.58
2022-09-12T01:18:45.649Z,1.73
2022-09-12T01:21:37.582Z,1.98
2022-09-12T01:24:29.419Z,1.75
2022-09-12T01:27:12.579Z,1.75
2022-09-12T01:30:01.004Z,1.40
2022-09-12T01:32:49.831Z,1.00
2022-09-12T01:35:21.376Z,0.90
2022-09-12T01:38:07.402Z,0.98
2022-09-12T01:40:49.382Z,0.98
2022-09-12T01:43:48.601Z,0.77
2022-09-12T01:46:37.634Z,1.23
2022-09-12T01:49:16.641Z,1.10
2022-09-12T01:52:04.822Z,1.30
2022-09-12T01:54:43.651Z,1.13
2022-09-12T01:57:30.182Z,1.38
2022-09-12T02:00:02.012Z,1.27
2022-09-12T02:02:36.120Z,1.40
2022-09-12T02:05:22.023Z,1.67
2022-09-12T02:08:05.133Z,1.67
2022-09-12T02:10:42.262Z,1.65
2022-09-12T02:13:26.111Z,1.40
2022-09-12T02:16:04.140Z,2.00
2022-09-12T02:18:34.110Z,2.15
2022-09-12T02:21:05.625Z,1.77
2022-09-12T02:23:35.059Z,1.50
2022-09-12T02:26:09.141Z,1.58
2022-09-12T02:28:40.866Z,1.73
2022-09-12T02:31:16.788Z,1.38
2022-09-12T02:34:02.260Z,1.80
2022-09-12T02:36:37.048Z,1.63
2022-09-12T02:39:04.507Z,2.17
2022-09-12T02:41:31.746Z,1.90
2022-09-12T02:43:59.040Z,2.05
2022-09-12T02:46:34.652Z,2.10
2022-09-12T02:49:01.944Z,1.85
2022-09-12T02:51:29.265Z,1.90
2022-09-12T02:53:57.393Z,1.90
2022-09-12T02:56:28.608Z,0.80
2022-09-12T02:59:06.957Z,1.05
2022-09-12T03:01:42.944Z,0.68
2022-09-12T03:04:34.868Z,0.50
2022-09-12T03:07:31.713Z,0.63
2022-09-12T03:10:36.531Z,0.80
2022-09-12T03:13:25.065Z,1.20
2022-09-12T03:16:06.796Z,0.63
2022-09-12T03:18:43.952Z,1.13
2022-09-12T03:21:17.189Z,1.58
2022-09-12T03:23:59.139Z,1.52
2022-09-12T03:26:26.308Z,0.77
2022-09-12T03:28:56.173Z,1.10
2022-09-12T03:31:23.321Z,1.40
2022-09-12T03:33:50.741Z,0.80
2022-09-12T03:36:25.772Z,1.00
2022-09-12T03:38:53.262Z,1.17
2022-09-12T03:41:21.211Z,0.80
2022-09-12T03:43:48.650Z,1.20
2022-09-12T03:46:15.874Z,1.15
2022-09-12T03:48:43.352Z,1.00
2022-09-12T03:51:11.077Z,1.20
2022-09-12T03:53:38.307Z,1.65
2022-09-12T03:56:15.403Z,1.85
2022-09-12T03:58:42.889Z,2.03
2022-09-12T04:01:13.209Z,1.95
2022-09-12T04:03:42.074Z,2.85
2022-09-12T04:06:11.127Z,2.40
2022-09-12T04:08:38.817Z,2.70
2022-09-12T04:11:07.802Z,2.90
2022-09-12T04:13:36.929Z,2.22
2022-09-12T04:16:04.955Z,2.97
2022-09-12T04:18:32.742Z,1.55
2022-09-12T04:21:03.744Z,1.60
2022-09-12T04:23:30.947Z,1.38
2022-09-12T04:26:00.489Z,1.50
2022-09-12T04:28:29.361Z,1.60
2022-09-12T04:30:58.019Z,1.63
2022-09-12T04:33:25.323Z,1.80
2022-09-12T04:35:52.590Z,1.20
2022-09-12T04:38:19.920Z,2.33
2022-09-12T04:40:47.922Z,2.33
2022-09-12T04:43:15.300Z,1.90
2022-09-12T04:45:42.556Z,2.25
2022-09-12T04:48:09.717Z,2.58
2022-09-12T04:50:36.910Z,1.88
2022-09-12T04:53:04.029Z,2.10
2022-09-12T04:55:31.209Z,1.67
2022-09-12T04:57:58.859Z,2.97
2022-09-12T05:00:25.987Z,2.05
2022-09-12T05:02:53.037Z,1.95
2022-09-12T05:05:20.238Z,1.13
2022-09-12T05:07:47.506Z,1.48
2022-09-12T05:10:15.020Z,4.05
2022-09-12T05:12:42.472Z,2.38
2022-09-12T05:15:11.864Z,1.38
2022-09-12T05:17:39.075Z,1.60
2022-09-12T05:20:06.945Z,1.30
2022-09-12T05:22:34.295Z,1.15
2022-09-12T05:25:01.753Z,1.58
2022-09-12T05:27:28.989Z,1.35
2022-09-12T05:29:56.581Z,2.80
2022-09-12T05:32:24.027Z,1.50
2022-09-12T05:34:51.317Z,3.00
2022-09-12T05:37:18.631Z,2.72
2022-09-12T05:39:46.519Z,2.38
2022-09-12T05:42:13.792Z,2.50
2022-09-12T05:45:21.702Z,2.25
2022-09-12T05:48:26.311Z,2.38
2022-09-12T05:54:34.810Z,2.15
2022-09-12T06:28:18.475Z,3.20
2022-09-12T07:02:36.985Z,6.03
2022-09-12T07:34:11.230Z,4.68
2022-09-12T07:39:52.734Z,5.45
2022-09-12T07:50:06.290Z,5.85
2022-09-12T07:52:33.728Z,6.07
2022-09-12T07:59:21.529Z,5.80
2022-09-12T08:01:57.451Z,5.85
2022-09-12T08:04:25.024Z,6.88
2022-09-12T08:06:52.544Z,5.88
2022-09-12T08:09:19.846Z,6.25
2022-09-12T08:11:47.286Z,7.30
2022-09-12T08:14:14.845Z,6.95
2022-09-12T08:16:42.303Z,7.07
2022-09-12T08:19:09.548Z,7.72
2022-09-12T08:21:36.967Z,7.93
2022-09-12T08:24:06.242Z,6.32
2022-09-12T08:26:34.315Z,8.48
2022-09-12T08:29:01.645Z,6.63
2022-09-12T08:31:29.033Z,7.47
2022-09-12T08:33:57.775Z,6.50
2022-09-12T08:36:27.592Z,7.45
2022-09-12T08:39:00.711Z,7.53
2022-09-12T08:41:38.732Z,6.25
2022-09-12T08:44:25.927Z,6.25
2022-09-12T08:47:25.574Z,6.18
2022-09-12T08:50:12.209Z,5.45
2022-09-12T08:53:02.599Z,5.85
2022-09-12T08:55:46.019Z,5.72
2022-09-12T08:58:23.013Z,5.90
2022-09-12T09:01:22.661Z,5.93
2022-09-12T09:04:11.168Z,6.78
2022-09-12T09:07:16.190Z,5.40
2022-09-12T09:09:51.891Z,4.18
2022-09-12T09:12:47.269Z,4.28
2022-09-12T09:15:48.851Z,3.37
2022-09-12T09:18:29.636Z,2.88
2022-09-12T09:21:02.180Z,2.60
2022-09-12T09:23:36.632Z,1.75
2022-09-12T09:26:26.881Z,1.93
2022-09-12T09:29:05.353Z,1.75
2022-09-12T09:31:39.898Z,2.45
2022-09-12T09:34:16.090Z,2.80
2022-09-12T09:37:06.275Z,3.63
2022-09-12T09:40:02.317Z,6.43
2022-09-12T09:43:00.763Z,4.47
2022-09-12T09:45:31.217Z,4.25
2022-09-12T09:48:13.913Z,2.80
2022-09-12T09:50:41.405Z,2.97
2022-09-12T09:53:22.626Z,5.95
2022-09-12T09:55:50.314Z,4.25
2022-09-12T09:58:34.377Z,3.75
2022-09-12T10:01:16.435Z,3.67
2022-09-12T10:03:52.348Z,3.80
2022-09-12T10:06:36.554Z,2.97
2022-09-12T10:09:15.980Z,3.22
2022-09-12T10:11:45.900Z,3.55
2022-09-12T10:14:30.356Z,2.83
2022-09-12T10:16:58.940Z,2.75
2022-09-12T10:19:38.758Z,2.00
2022-09-12T10:22:07.849Z,2.47
2022-09-12T10:24:43.887Z,2.30
2022-09-12T10:27:14.111Z,2.55
2022-09-12T10:29:48.634Z,3.25
2022-09-12T10:32:38.312Z,2.20
2022-09-12T10:35:28.483Z,2.95
2022-09-12T10:38:00.345Z,2.53
2022-09-12T10:40:40.307Z,2.40
2022-09-12T10:43:34.875Z,2.17
2022-09-12T10:46:24.066Z,3.47
2022-09-12T10:49:12.203Z,2.83
2022-09-12T10:51:39.683Z,3.25
2022-09-12T10:54:10.926Z,3.17
2022-09-12T10:57:18.454Z,2.00
2022-09-12T11:00:28.005Z,1.55
2022-09-12T11:03:15.688Z,2.70
2022-09-12T11:06:02.066Z,2.28
2022-09-12T11:08:34.909Z,2.25
2022-09-12T11:11:07.995Z,1.95
2022-09-12T11:13:55.929Z,1.60
2022-09-12T11:16:49.000Z,1.70
2022-09-12T11:19:57.555Z,1.40
2022-09-12T11:22:45.231Z,1.60
2022-09-12T11:25:35.782Z,1.75
2022-09-12T11:28:47.810Z,2.45
2022-09-12T11:31:45.712Z,1.70
2022-09-12T11:34:31.451Z,1.38
2022-09-12T11:37:26.532Z,1.30
2022-09-12T11:39:56.779Z,2.43
2022-09-12T11:42:31.087Z,2.20
2022-09-12T11:45:22.802Z,2.53
2022-09-12T11:47:54.653Z,2.42
2022-09-12T11:50:32.263Z,1.63
2022-09-12T11:53:31.300Z,1.05
2022-09-12T11:56:18.875Z,1.20
2022-09-12T11:58:53.461Z,1.20
2022-09-12T12:04:44.238Z,1.23
2022-09-12T12:07:12.373Z,1.48
2022-09-12T12:09:51.390Z,1.40
2022-09-12T12:12:24.519Z,1.70
2022-09-12T12:14:53.877Z,2.00
2022-09-12T12:17:23.606Z,1.65
2022-09-12T12:20:08.339Z,1.52
2022-09-12T12:22:36.350Z,2.08
2022-09-12T12:25:12.574Z,1.23
2022-09-12T12:27:47.448Z,1.40
2022-09-12T12:30:29.910Z,1.15
2022-09-12T12:33:10.360Z,1.40
2022-09-12T12:35:44.122Z,2.63
2022-09-12T12:38:31.418Z,1.27
2022-09-12T12:41:17.299Z,0.98
2022-09-12T12:43:46.201Z,1.10
2022-09-12T12:46:18.297Z,1.85
2022-09-12T12:49:07.182Z,1.60
2022-09-12T12:52:02.343Z,1.58
2022-09-12T12:54:32.174Z,1.63
2022-09-12T12:57:13.305Z,1.30
2022-09-12T13:00:02.755Z,1.15
2022-09-12T13:02:56.936Z,0.88
2022-09-12T13:05:26.671Z,0.90
2022-09-12T13:08:19.393Z,1.10
2022-09-12T13:10:52.593Z,1.70
2022-09-12T13:13:36.280Z,1.23
2022-09-12T13:16:04.065Z,1.48
2022-09-12T13:18:44.369Z,1.95
2022-09-12T13:21:18.340Z,1.40
2022-09-12T13:24:00.001Z,1.25
2022-09-12T13:26:27.476Z,1.20
2022-09-12T13:29:17.543Z,1.40
2022-09-12T13:31:47.548Z,1.15
2022-09-12T13:34:24.268Z,1.40
2022-09-12T13:37:20.138Z,2.10
2022-09-12T13:39:50.133Z,1.60
2022-09-12T13:42:20.458Z,1.10
2022-09-12T13:45:14.947Z,1.60
2022-09-12T13:47:48.134Z,1.70
2022-09-12T13:50:23.039Z,1.30
2022-09-12T13:52:57.417Z,1.02
2022-09-12T13:55:33.867Z,0.83
2022-09-12T13:58:04.469Z,1.02
2022-09-12T14:00:35.384Z,1.52
2022-09-12T14:03:31.958Z,1.08
2022-09-12T14:05:59.700Z,1.35
2022-09-12T14:08:27.403Z,0.85
2022-09-12T14:10:55.239Z,1.42
2022-09-12T14:13:25.781Z,0.85
2022-09-12T14:16:02.610Z,0.95
2022-09-12T14:18:34.715Z,0.65
2022-09-12T14:21:26.400Z,1.35
2022-09-12T14:23:55.170Z,1.00
2022-09-12T14:26:23.791Z,0.95
2022-09-12T14:28:51.908Z,1.38
2022-09-12T14:31:30.972Z,1.88
2022-09-12T14:34:16.437Z,1.50
2022-09-12T14:36:48.059Z,1.02
2022-09-12T14:39:30.584Z,1.40
2022-09-12T14:42:30.056Z,1.48
2022-09-12T14:45:14.451Z,1.20
2022-09-12T14:47:43.143Z,1.00
2022-09-12T14:50:18.161Z,1.10
2022-09-12T14:52:45.521Z,1.30
2022-09-12T14:55:32.762Z,1.20
2022-09-12T14:58:22.896Z,1.27
2022-09-12T15:00:58.405Z,0.73
2022-09-12T15:03:49.545Z,1.20
2022-09-12T15:06:40.299Z,1.15
2022-09-12T15:09:12.730Z,1.60
2022-09-12T15:11:40.351Z,1.83
2022-09-12T15:14:13.614Z,2.33
2022-09-12T15:16:42.081Z,1.67
2022-09-12T15:19:09.242Z,1.30
2022-09-12T15:21:36.530Z,1.52
2022-09-12T15:24:03.746Z,1.65
2022-09-12T15:26:34.311Z,2.17
2022-09-12T15:29:01.733Z,1.83
2022-09-12T15:31:31.156Z,1.60
2022-09-12T15:34:00.764Z,2.10
2022-09-12T15:36:29.052Z,1.83
2022-09-12T15:38:56.643Z,1.50
2022-09-12T15:41:37.039Z,1.65
2022-09-12T15:44:06.048Z,2.13
2022-09-12T15:46:33.175Z,2.45
2022-09-12T15:49:00.377Z,2.05
2022-09-12T15:51:28.053Z,2.28
2022-09-12T15:53:55.399Z,1.52
2022-09-12T15:56:23.055Z,1.40
2022-09-12T15:58:58.905Z,1.88
2022-09-12T16:01:28.365Z,1.83
2022-09-12T16:03:55.613Z,1.70
2022-09-12T16:06:22.755Z,2.10
2022-09-12T16:08:50.111Z,2.33
2022-09-12T16:11:27.899Z,2.10
2022-09-12T16:13:56.999Z,2.03
2022-09-12T16:16:24.271Z,2.25
2022-09-12T16:18:51.438Z,2.08
2022-09-12T16:21:18.840Z,1.67
2022-09-12T16:23:48.614Z,1.70
2022-09-12T16:26:16.578Z,1.55
2022-09-12T16:28:44.411Z,2.45
2022-09-12T16:31:13.479Z,2.17
2022-09-12T16:33:41.449Z,1.50
2022-09-12T16:36:11.080Z,1.80
2022-09-12T16:38:43.114Z,1.27
2022-09-12T16:41:11.006Z,1.58
2022-09-12T16:43:38.262Z,1.42
2022-09-12T16:46:14.826Z,2.20
2022-09-12T16:48:51.819Z,1.52
2022-09-12T16:51:28.693Z,3.08
2022-09-12T16:53:56.707Z,1.88
2022-09-12T16:56:24.334Z,2.53
2022-09-12T16:58:51.944Z,1.70
2022-09-12T17:01:23.898Z,1.67
2022-09-12T17:03:56.772Z,1.50
2022-09-12T17:06:25.449Z,1.73
2022-09-12T17:08:54.793Z,1.70
2022-09-12T17:11:24.579Z,2.05
2022-09-12T17:14:04.393Z,1.80
2022-09-12T17:16:38.843Z,1.90
2022-09-12T17:19:06.854Z,1.80
2022-09-12T17:21:34.188Z,2.53
2022-09-12T17:24:01.428Z,2.17
2022-09-12T17:26:28.779Z,2.42
2022-09-12T17:28:55.880Z,1.48
2022-09-12T17:31:23.115Z,1.98
2022-09-12T17:33:50.295Z,1.80
2022-09-12T17:36:18.457Z,1.60
2022-09-12T17:38:46.495Z,2.00
2022-09-12T17:41:19.474Z,1.92
2022-09-12T17:43:52.384Z,1.90
2022-09-12T17:46:21.539Z,2.13
2022-09-12T17:48:53.715Z,2.20
2022-09-12T17:51:22.740Z,2.08
2022-09-12T17:53:49.849Z,1.70
2022-09-12T17:56:16.854Z,2.00
2022-09-12T17:58:44.032Z,2.25
2022-09-12T18:01:33.505Z,1.98
2022-09-12T18:04:01.553Z,2.13
2022-09-12T18:06:30.736Z,2.35
2022-09-12T18:09:06.617Z,2.28
2022-09-12T18:11:34.735Z,2.58
2022-09-12T18:14:02.089Z,2.08
2022-09-12T18:16:29.674Z,2.25
2022-09-12T18:18:57.895Z,2.13
2022-09-12T18:21:25.043Z,2.42
2022-09-12T18:23:52.245Z,2.28
2022-09-12T18:26:19.430Z,2.13
2022-09-12T18:28:46.726Z,2.42
2022-09-12T18:31:17.198Z,3.35
2022-09-12T18:33:45.168Z,2.55
2022-09-12T18:36:14.683Z,2.88
2022-09-12T18:38:42.838Z,2.45
2022-09-12T18:41:22.923Z,2.22
2022-09-12T18:43:53.731Z,2.72
2022-09-12T18:46:21.251Z,2.33
2022-09-12T18:48:48.694Z,3.60
2022-09-12T18:51:21.122Z,2.50
2022-09-12T18:53:56.870Z,2.53
2022-09-12T18:56:26.763Z,2.88
2022-09-12T18:58:56.817Z,2.47
2022-09-12T19:01:32.629Z,2.13
2022-09-12T19:04:01.277Z,2.33
2022-09-12T19:06:31.209Z,2.75
2022-09-12T19:09:01.705Z,2.60
2022-09-12T19:11:31.382Z,2.75
2022-09-12T19:13:58.511Z,2.78
2022-09-12T19:16:28.231Z,2.50
2022-09-12T19:18:56.728Z,2.60
2022-09-12T19:21:28.637Z,2.55
2022-09-12T19:24:06.196Z,2.10
2022-09-12T19:26:34.284Z,2.83
2022-09-12T19:29:03.187Z,2.40
2022-09-12T19:31:31.668Z,2.97
2022-09-12T19:34:04.852Z,3.58
2022-09-12T19:36:48.128Z,2.28
2022-09-12T19:39:17.276Z,2.40
2022-09-12T19:41:45.434Z,3.20
2022-09-12T19:44:13.189Z,2.75
2022-09-12T19:46:40.833Z,2.40
2022-09-12T19:49:08.214Z,2.25
2022-09-12T19:51:35.466Z,2.33
2022-09-12T19:54:08.478Z,2.55
2022-09-12T19:56:35.861Z,2.70
2022-09-12T19:59:03.738Z,2.10
2022-09-12T20:01:31.128Z,2.83
2022-09-12T20:03:59.501Z,3.03
2022-09-12T20:06:28.714Z,2.65
2022-09-12T20:08:56.525Z,2.10
2022-09-12T20:11:24.207Z,2.53
2022-09-12T20:13:51.869Z,2.60
2022-09-12T20:16:23.062Z,2.67
2022-09-12T20:18:56.169Z,2.30
2022-09-12T20:21:31.895Z,2.20
2022-09-12T20:24:05.927Z,2.35
2022-09-12T20:26:33.673Z,3.13
2022-09-12T20:29:01.073Z,2.97
2022-09-12T20:31:28.836Z,2.75
2022-09-12T20:33:56.326Z,2.83
2022-09-12T20:36:24.082Z,2.63
2022-09-12T20:38:57.197Z,2.88
2022-09-12T20:41:25.289Z,3.03
2022-09-12T20:43:54.447Z,2.20
2022-09-12T20:46:22.849Z,2.00
2022-09-12T20:48:51.496Z,3.05
2022-09-12T20:51:20.308Z,2.35
2022-09-12T20:53:48.251Z,2.50
2022-09-12T20:56:15.527Z,2.38
2022-09-12T20:58:44.584Z,2.30
2022-09-12T21:01:14.116Z,2.72
2022-09-12T21:03:42.761Z,2.60
2022-09-12T21:06:12.784Z,2.97
2022-09-12T21:08:40.588Z,2.80
2022-09-12T21:11:10.633Z,2.55
2022-09-12T21:13:38.293Z,2.28
2022-09-12T21:16:17.922Z,2.53
2022-09-12T21:18:46.045Z,2.53
2022-09-12T21:21:14.788Z,2.47
2022-09-12T21:23:42.662Z,2.30
2022-09-12T21:26:10.201Z,2.75
2022-09-12T21:28:37.411Z,2.90
2022-09-12T21:31:05.634Z,2.63
2022-09-12T21:33:33.662Z,2.90
2022-09-12T21:36:05.891Z,2.60
2022-09-12T21:38:33.917Z,2.45
2022-09-12T21:41:13.009Z,2.40
2022-09-12T21:43:40.593Z,2.88
2022-09-12T21:46:08.650Z,2.70
2022-09-12T21:48:36.634Z,2.63
2022-09-12T21:51:04.480Z,2.78
2022-09-12T21:53:32.253Z,2.97
2022-09-12T21:56:07.741Z,2.17
2022-09-12T21:58:35.711Z,2.40
2022-09-12T22:01:04.838Z,3.20
2022-09-12T22:03:32.506Z,2.47
2022-09-12T22:06:05.582Z,2.90
2022-09-12T22:08:36.327Z,3.13
2022-09-12T22:11:09.689Z,2.83
2022-09-12T22:13:39.635Z,2.45
2022-09-12T22:16:07.894Z,2.80
2022-09-12T22:18:38.869Z,2.80
2022-09-12T22:21:15.262Z,3.00
2022-09-12T22:24:01.066Z,2.60
2022-09-12T22:28:56.779Z,3.13
2022-09-12T22:31:24.289Z,2.47
2022-09-12T22:33:51.651Z,3.15
2022-09-12T22:36:18.697Z,3.22
2022-09-12T22:38:45.874Z,3.17
2022-09-12T22:41:13.500Z,2.92
2022-09-12T22:43:41.166Z,3.28
2022-09-12T22:46:10.185Z,3.33
2022-09-12T22:48:38.383Z,3.70
2022-09-12T22:51:06.131Z,2.92
2022-09-12T22:53:34.460Z,3.13
2022-09-12T22:56:02.315Z,3.30
2022-09-12T22:58:29.626Z,3.58
2022-09-12T23:00:56.887Z,3.10
2022-09-12T23:03:24.601Z,3.60
2022-09-12T23:05:52.238Z,3.28
2022-09-12T23:08:19.730Z,4.05
2022-09-12T23:10:47.198Z,3.63
2022-09-12T23:13:14.379Z,3.17
2022-09-12T23:15:41.666Z,3.65
2022-09-12T23:18:08.882Z,3.58
2022-09-12T23:20:35.928Z,3.92
2022-09-12T23:23:03.534Z,4.60
2022-09-12T23:25:31.191Z,2.90
2022-09-12T23:27:58.847Z,4.00
2022-09-12T23:30:26.010Z,3.78
2022-09-12T23:32:53.140Z,3.80
2022-09-12T23:35:20.336Z,3.20
2022-09-12T23:37:47.962Z,3.40
2022-09-12T23:40:15.530Z,3.90
2022-09-12T23:42:42.882Z,3.13
2022-09-12T23:45:10.643Z,3.63
2022-09-12T23:47:37.953Z,3.65
2022-09-12T23:50:05.599Z,4.18
2022-09-12T23:52:32.932Z,3.47
2022-09-12T23:55:00.276Z,3.38
2022-09-12T23:57:27.536Z,3.72
2022-09-12T23:59:54.686Z,3.60
